sensor_id;sensor_type;location;lat;lon;timestamp;P1;durP1;ratioP1;P2;durP2;ratioP2
18808;SDS011;9532;54.322;10.116;2022-12-07T00:01:51;5.17;;;3.23;;
18808;SDS011;9532;54.322;10.116;2022-12-07T00:04:18;5.53;;;3.50;;
18808;SDS011;9532;54.322;10.116;2022-12-07T00:06:46;5.43;;;3.50;;
18808;SDS011;9532;54.322;10.116;2022-12-07T00:09:19;4.77;;;3.20;;
18808;SDS011;9532;54.322;10.116;2022-12-07T00:11:48;5.13;;;3.10;;
18808;SDS011;9532;54.322;10.116;2022-12-07T00:14:16;5.37;;;3.47;;
18808;SDS011;9532;54.322;10.116;2022-12-07T00:16:43;5.37;;;3.33;;
18808;SDS011;9532;54.322;10.116;2022-12-07T00:19:11;4.97;;;3.43;;
18808;SDS011;9532;54.322;10.116;2022-12-07T00:21:39;6.80;;;3.77;;
18808;SDS011;9532;54.322;10.116;2022-12-07T00:24:07;5.40;;;3.70;;
18808;SDS011;9532;54.322;10.116;2022-12-07T00:26:37;6.37;;;3.50;;
18808;SDS011;9532;54.322;10.116;2022-12-07T00:29:06;5.47;;;3.77;;
18808;SDS011;9532;54.322;10.116;2022-12-07T00:31:36;4.97;;;3.37;;
18808;SDS011;9532;54.322;10.116;2022-12-07T00:34:04;4.97;;;3.53;;
18808;SDS011;9532;54.322;10.116;2022-12-07T00:36:32;5.10;;;3.43;;
18808;SDS011;9532;54.322;10.116;2022-12-07T00:39:00;5.73;;;3.80;;
18808;SDS011;9532;54.322;10.116;2022-12-07T00:41:27;6.80;;;4.10;;
18808;SDS011;9532;54.322;10.116;2022-12-07T00:43:57;5.10;;;3.37;;
18808;SDS011;9532;54.322;10.116;2022-12-07T00:46:24;6.13;;;3.63;;
18808;SDS011;9532;54.322;10.116;2022-12-07T00:48:52;4.67;;;3.30;;
18808;SDS011;9532;54.322;10.116;2022-12-07T00:51:20;6.80;;;3.90;;
18808;SDS011;9532;54.322;10.116;2022-12-07T00:53:50;5.20;;;3.63;;
18808;SDS011;9532;54.322;10.116;2022-12-07T00:56:17;5.23;;;3.77;;
18808;SDS011;9532;54.322;10.116;2022-12-07T00:58:49;5.97;;;3.90;;
18808;SDS011;9532;54.322;10.116;2022-12-07T01:01:19;6.13;;;3.57;;
18808;SDS011;9532;54.322;10.116;2022-12-07T01:03:46;5.97;;;3.70;;
18808;SDS011;9532;54.322;10.116;2022-12-07T01:06:14;5.60;;;3.50;;
18808;SDS011;9532;54.322;10.116;2022-12-07T01:08:42;5.40;;;3.63;;
18808;SDS011;9532;54.322;10.116;2022-12-07T01:11:11;5.63;;;3.57;;
18808;SDS011;9532;54.322;10.116;2022-12-07T01:13:40;5.27;;;3.60;;
18808;SDS011;9532;54.322;10.116;2022-12-07T01:16:08;4.70;;;3.20;;
18808;SDS011;9532;54.322;10.116;2022-12-07T01:18:39;5.40;;;3.67;;
18808;SDS011;9532;54.322;10.116;2022-12-07T01:21:13;5.60;;;3.50;;
18808;SDS011;9532;54.322;10.116;2022-12-07T01:23:41;5.77;;;3.50;;
18808;SDS011;9532;54.322;10.116;2022-12-07T01:26:10;5.33;;;3.50;;
18808;SDS011;9532;54.322;10.116;2022-12-07T01:28:39;5.13;;;3.27;;
18808;SDS011;9532;54.322;10.116;2022-12-07T01:31:06;5.67;;;3.70;;
18808;SDS011;9532;54.322;10.116;2022-12-07T01:33:36;3.57;;;2.63;;
18808;SDS011;9532;54.322;10.116;2022-12-07T01:36:06;4.47;;;3.00;;
18808;SDS011;9532;54.322;10.116;2022-12-07T01:38:35;4.90;;;3.50;;
18808;SDS011;9532;54.322;10.116;2022-12-07T01:41:02;5.10;;;3.53;;
18808;SDS011;9532;54.322;10.116;2022-12-07T01:43:30;4.50;;;3.20;;
18808;SDS011;9532;54.322;10.116;2022-12-07T01:45:59;4.00;;;2.90;;
18808;SDS011;9532;54.322;10.116;2022-12-07T01:48:27;4.27;;;2.90;;
18808;SDS011;9532;54.322;10.116;2022-12-07T01:51:02;4.73;;;3.07;;
18808;SDS011;9532;54.322;10.116;2022-12-07T01:53:33;3.97;;;2.83;;
18808;SDS011;9532;54.322;10.116;2022-12-07T01:56:01;3.80;;;2.77;;
18808;SDS011;9532;54.322;10.116;2022-12-07T01:58:29;4.83;;;2.90;;
18808;SDS011;9532;54.322;10.116;2022-12-07T02:00:56;4.30;;;2.90;;
18808;SDS011;9532;54.322;10.116;2022-12-07T02:03:25;3.80;;;2.70;;
18808;SDS011;9532;54.322;10.116;2022-12-07T02:05:56;4.27;;;3.00;;
18808;SDS011;9532;54.322;10.116;2022-12-07T02:08:26;4.60;;;2.90;;
18808;SDS011;9532;54.322;10.116;2022-12-07T02:10:54;4.40;;;2.97;;
18808;SDS011;9532;54.322;10.116;2022-12-07T02:13:22;3.40;;;2.33;;
18808;SDS011;9532;54.322;10.116;2022-12-07T02:15:56;4.00;;;2.70;;
18808;SDS011;9532;54.322;10.116;2022-12-07T02:18:38;3.57;;;2.40;;
18808;SDS011;9532;54.322;10.116;2022-12-07T02:21:20;3.67;;;2.70;;
18808;SDS011;9532;54.322;10.116;2022-12-07T02:27:13;3.13;;;2.30;;
18808;SDS011;9532;54.322;10.116;2022-12-07T02:30:06;4.00;;;2.70;;
18808;SDS011;9532;54.322;10.116;2022-12-07T02:32:39;3.10;;;2.00;;
18808;SDS011;9532;54.322;10.116;2022-12-07T02:35:11;3.80;;;2.30;;
18808;SDS011;9532;54.322;10.116;2022-12-07T02:37:47;3.67;;;2.20;;
18808;SDS011;9532;54.322;10.116;2022-12-07T02:40:23;3.83;;;2.30;;
18808;SDS011;9532;54.322;10.116;2022-12-07T02:42:55;3.33;;;2.23;;
18808;SDS011;9532;54.322;10.116;2022-12-07T02:45:29;3.33;;;2.30;;
18808;SDS011;9532;54.322;10.116;2022-12-07T02:47:59;4.10;;;2.57;;
18808;SDS011;9532;54.322;10.116;2022-12-07T02:50:28;3.07;;;2.07;;
18808;SDS011;9532;54.322;10.116;2022-12-07T02:52:55;3.70;;;2.03;;
18808;SDS011;9532;54.322;10.116;2022-12-07T02:55:23;2.97;;;2.10;;
18808;SDS011;9532;54.322;10.116;2022-12-07T02:58:06;3.10;;;1.90;;
18808;SDS011;9532;54.322;10.116;2022-12-07T03:00:48;3.77;;;2.20;;
18808;SDS011;9532;54.322;10.116;2022-12-07T03:03:23;4.00;;;2.40;;
18808;SDS011;9532;54.322;10.116;2022-12-07T03:05:58;3.33;;;2.20;;
18808;SDS011;9532;54.322;10.116;2022-12-07T03:08:35;3.50;;;1.90;;
18808;SDS011;9532;54.322;10.116;2022-12-07T03:11:10;2.70;;;1.83;;
18808;SDS011;9532;54.322;10.116;2022-12-07T03:13:41;2.90;;;2.00;;
18808;SDS011;9532;54.322;10.116;2022-12-07T03:16:17;1.70;;;1.43;;
18808;SDS011;9532;54.322;10.116;2022-12-07T03:18:47;2.60;;;2.00;;
18808;SDS011;9532;54.322;10.116;2022-12-07T03:21:19;2.33;;;1.80;;
18808;SDS011;9532;54.322;10.116;2022-12-07T03:23:51;2.87;;;1.73;;
18808;SDS011;9532;54.322;10.116;2022-12-07T03:26:21;2.90;;;1.80;;
18808;SDS011;9532;54.322;10.116;2022-12-07T03:28:55;2.20;;;1.60;;
18808;SDS011;9532;54.322;10.116;2022-12-07T03:31:29;3.10;;;1.83;;
18808;SDS011;9532;54.322;10.116;2022-12-07T03:33:59;2.90;;;1.90;;
18808;SDS011;9532;54.322;10.116;2022-12-07T03:36:34;3.17;;;1.60;;
18808;SDS011;9532;54.322;10.116;2022-12-07T03:39:08;2.47;;;1.60;;
18808;SDS011;9532;54.322;10.116;2022-12-07T03:41:43;2.03;;;1.60;;
18808;SDS011;9532;54.322;10.116;2022-12-07T03:44:10;2.17;;;1.77;;
18808;SDS011;9532;54.322;10.116;2022-12-07T03:46:42;6.17;;;1.57;;
18808;SDS011;9532;54.322;10.116;2022-12-07T03:49:18;2.27;;;1.60;;
18808;SDS011;9532;54.322;10.116;2022-12-07T03:51:51;1.80;;;1.30;;
18808;SDS011;9532;54.322;10.116;2022-12-07T03:54:24;2.47;;;1.80;;
18808;SDS011;9532;54.322;10.116;2022-12-07T03:56:56;1.97;;;1.50;;
18808;SDS011;9532;54.322;10.116;2022-12-07T03:59:25;3.67;;;1.50;;
18808;SDS011;9532;54.322;10.116;2022-12-07T04:01:55;1.90;;;1.40;;
18808;SDS011;9532;54.322;10.116;2022-12-07T04:04:23;3.37;;;1.40;;
18808;SDS011;9532;54.322;10.116;2022-12-07T04:06:51;2.03;;;1.30;;
18808;SDS011;9532;54.322;10.116;2022-12-07T04:09:18;1.97;;;1.40;;
18808;SDS011;9532;54.322;10.116;2022-12-07T04:11:46;2.17;;;1.60;;
18808;SDS011;9532;54.322;10.116;2022-12-07T04:14:13;1.83;;;1.53;;
18808;SDS011;9532;54.322;10.116;2022-12-07T04:16:47;1.73;;;1.30;;
18808;SDS011;9532;54.322;10.116;2022-12-07T04:19:19;2.77;;;1.43;;
18808;SDS011;9532;54.322;10.116;2022-12-07T04:21:47;1.83;;;1.50;;
18808;SDS011;9532;54.322;10.116;2022-12-07T04:24:14;1.83;;;1.50;;
18808;SDS011;9532;54.322;10.116;2022-12-07T04:26:43;1.83;;;1.40;;
18808;SDS011;9532;54.322;10.116;2022-12-07T04:29:10;1.60;;;1.30;;
18808;SDS011;9532;54.322;10.116;2022-12-07T04:31:38;1.50;;;1.20;;
18808;SDS011;9532;54.322;10.116;2022-12-07T04:34:06;1.93;;;1.40;;
18808;SDS011;9532;54.322;10.116;2022-12-07T04:36:35;2.37;;;1.43;;
18808;SDS011;9532;54.322;10.116;2022-12-07T04:39:04;1.87;;;1.47;;
18808;SDS011;9532;54.322;10.116;2022-12-07T04:41:32;1.80;;;1.33;;
18808;SDS011;9532;54.322;10.116;2022-12-07T04:44:00;1.90;;;1.43;;
18808;SDS011;9532;54.322;10.116;2022-12-07T04:46:32;1.63;;;1.10;;
18808;SDS011;9532;54.322;10.116;2022-12-07T04:48:59;2.17;;;1.60;;
18808;SDS011;9532;54.322;10.116;2022-12-07T04:51:27;1.67;;;1.30;;
18808;SDS011;9532;54.322;10.116;2022-12-07T04:53:57;1.43;;;1.10;;
18808;SDS011;9532;54.322;10.116;2022-12-07T04:56:24;2.50;;;1.37;;
18808;SDS011;9532;54.322;10.116;2022-12-07T04:58:52;1.83;;;1.40;;
18808;SDS011;9532;54.322;10.116;2022-12-07T05:01:21;1.93;;;1.37;;
18808;SDS011;9532;54.322;10.116;2022-12-07T05:03:49;1.67;;;1.23;;
18808;SDS011;9532;54.322;10.116;2022-12-07T05:06:16;2.23;;;1.50;;
18808;SDS011;9532;54.322;10.116;2022-12-07T05:08:43;1.47;;;1.10;;
18808;SDS011;9532;54.322;10.116;2022-12-07T05:11:12;1.30;;;1.10;;
18808;SDS011;9532;54.322;10.116;2022-12-07T05:14:00;2.30;;;1.40;;
18808;SDS011;9532;54.322;10.116;2022-12-07T05:16:27;1.67;;;1.20;;
18808;SDS011;9532;54.322;10.116;2022-12-07T05:18:55;1.93;;;1.30;;
18808;SDS011;9532;54.322;10.116;2022-12-07T05:21:23;1.93;;;1.40;;
18808;SDS011;9532;54.322;10.116;2022-12-07T05:23:50;1.60;;;1.30;;
18808;SDS011;9532;54.322;10.116;2022-12-07T05:26:19;2.00;;;1.30;;
18808;SDS011;9532;54.322;10.116;2022-12-07T05:28:49;1.60;;;1.30;;
18808;SDS011;9532;54.322;10.116;2022-12-07T05:31:17;2.03;;;1.27;;
18808;SDS011;9532;54.322;10.116;2022-12-07T05:33:45;1.50;;;1.10;;
18808;SDS011;9532;54.322;10.116;2022-12-07T05:36:12;1.60;;;1.20;;
18808;SDS011;9532;54.322;10.116;2022-12-07T05:38:39;1.43;;;1.10;;
18808;SDS011;9532;54.322;10.116;2022-12-07T05:41:07;1.43;;;1.10;;
18808;SDS011;9532;54.322;10.116;2022-12-07T05:43:58;2.00;;;1.40;;
18808;SDS011;9532;54.322;10.116;2022-12-07T05:46:25;1.33;;;1.20;;
18808;SDS011;9532;54.322;10.116;2022-12-07T05:48:52;1.50;;;1.10;;
18808;SDS011;9532;54.322;10.116;2022-12-07T05:51:20;1.27;;;0.93;;
18808;SDS011;9532;54.322;10.116;2022-12-07T05:53:47;1.53;;;1.30;;
18808;SDS011;9532;54.322;10.116;2022-12-07T05:56:14;1.80;;;1.27;;
18808;SDS011;9532;54.322;10.116;2022-12-07T05:58:41;2.00;;;1.40;;
18808;SDS011;9532;54.322;10.116;2022-12-07T06:01:27;2.07;;;1.33;;
18808;SDS011;9532;54.322;10.116;2022-12-07T06:03:55;1.30;;;1.10;;
18808;SDS011;9532;54.322;10.116;2022-12-07T06:06:22;2.10;;;1.23;;
18808;SDS011;9532;54.322;10.116;2022-12-07T06:08:49;3.47;;;1.10;;
18808;SDS011;9532;54.322;10.116;2022-12-07T06:11:17;2.10;;;1.10;;
18808;SDS011;9532;54.322;10.116;2022-12-07T06:14:01;2.77;;;1.23;;
18808;SDS011;9532;54.322;10.116;2022-12-07T06:16:30;4.03;;;1.40;;
18808;SDS011;9532;54.322;10.116;2022-12-07T06:18:57;3.70;;;1.10;;
18808;SDS011;9532;54.322;10.116;2022-12-07T06:21:24;7.93;;;1.53;;
18808;SDS011;9532;54.322;10.116;2022-12-07T06:23:52;7.80;;;1.10;;
18808;SDS011;9532;54.322;10.116;2022-12-07T06:26:19;5.87;;;1.10;;
18808;SDS011;9532;54.322;10.116;2022-12-07T06:28:47;2.87;;;1.20;;
18808;SDS011;9532;54.322;10.116;2022-12-07T06:31:14;2.37;;;1.00;;
18808;SDS011;9532;54.322;10.116;2022-12-07T06:33:43;6.17;;;1.40;;
18808;SDS011;9532;54.322;10.116;2022-12-07T06:36:10;6.27;;;1.13;;
18808;SDS011;9532;54.322;10.116;2022-12-07T06:38:38;11.53;;;1.23;;
18808;SDS011;9532;54.322;10.116;2022-12-07T06:41:05;4.80;;;1.23;;
18808;SDS011;9532;54.322;10.116;2022-12-07T06:43:33;3.53;;;1.00;;
18808;SDS011;9532;54.322;10.116;2022-12-07T06:46:00;8.77;;;1.47;;
18808;SDS011;9532;54.322;10.116;2022-12-07T06:48:27;4.73;;;1.50;;
18808;SDS011;9532;54.322;10.116;2022-12-07T06:50:56;6.00;;;3.97;;
18808;SDS011;9532;54.322;10.116;2022-12-07T06:53:23;6.80;;;3.07;;
18808;SDS011;9532;54.322;10.116;2022-12-07T06:55:50;9.87;;;2.53;;
18808;SDS011;9532;54.322;10.116;2022-12-07T06:58:18;6.50;;;1.90;;
18808;SDS011;9532;54.322;10.116;2022-12-07T07:00:45;6.50;;;1.67;;
18808;SDS011;9532;54.322;10.116;2022-12-07T07:03:14;4.50;;;1.70;;
18808;SDS011;9532;54.322;10.116;2022-12-07T07:05:41;3.63;;;1.50;;
18808;SDS011;9532;54.322;10.116;2022-12-07T07:08:10;2.70;;;1.50;;
18808;SDS011;9532;54.322;10.116;2022-12-07T07:10:38;4.17;;;1.73;;
18808;SDS011;9532;54.322;10.116;2022-12-07T07:13:05;5.80;;;1.50;;
18808;SDS011;9532;54.322;10.116;2022-12-07T07:15:33;4.23;;;1.20;;
18808;SDS011;9532;54.322;10.116;2022-12-07T07:18:01;5.83;;;1.40;;
18808;SDS011;9532;54.322;10.116;2022-12-07T07:20:29;5.30;;;1.37;;
18808;SDS011;9532;54.322;10.116;2022-12-07T07:22:56;6.87;;;1.20;;
18808;SDS011;9532;54.322;10.116;2022-12-07T07:25:25;3.67;;;1.60;;
18808;SDS011;9532;54.322;10.116;2022-12-07T07:27:52;3.83;;;1.43;;
18808;SDS011;9532;54.322;10.116;2022-12-07T07:30:20;9.17;;;1.73;;
18808;SDS011;9532;54.322;10.116;2022-12-07T07:32:47;3.67;;;1.13;;
18808;SDS011;9532;54.322;10.116;2022-12-07T07:35:14;6.80;;;1.20;;
18808;SDS011;9532;54.322;10.116;2022-12-07T07:37:42;4.03;;;1.50;;
18808;SDS011;9532;54.322;10.116;2022-12-07T07:40:10;2.67;;;1.13;;
18808;SDS011;9532;54.322;10.116;2022-12-07T07:42:39;4.53;;;1.27;;
18808;SDS011;9532;54.322;10.116;2022-12-07T07:45:07;5.10;;;1.23;;
18808;SDS011;9532;54.322;10.116;2022-12-07T07:47:34;6.27;;;1.40;;
18808;SDS011;9532;54.322;10.116;2022-12-07T07:50:02;7.20;;;1.50;;
18808;SDS011;9532;54.322;10.116;2022-12-07T07:52:30;5.80;;;1.43;;
18808;SDS011;9532;54.322;10.116;2022-12-07T07:54:58;4.97;;;1.30;;
18808;SDS011;9532;54.322;10.116;2022-12-07T07:57:25;5.70;;;1.50;;
18808;SDS011;9532;54.322;10.116;2022-12-07T07:59:54;6.07;;;1.30;;
18808;SDS011;9532;54.322;10.116;2022-12-07T08:02:21;3.37;;;1.20;;
18808;SDS011;9532;54.322;10.116;2022-12-07T08:04:48;5.97;;;1.40;;
18808;SDS011;9532;54.322;10.116;2022-12-07T08:07:15;5.53;;;1.60;;
18808;SDS011;9532;54.322;10.116;2022-12-07T08:09:44;3.40;;;1.33;;
18808;SDS011;9532;54.322;10.116;2022-12-07T08:12:12;5.30;;;1.40;;
18808;SDS011;9532;54.322;10.116;2022-12-07T08:14:39;2.37;;;1.00;;
18808;SDS011;9532;54.322;10.116;2022-12-07T08:17:08;5.80;;;1.50;;
18808;SDS011;9532;54.322;10.116;2022-12-07T08:19:37;2.90;;;1.23;;
18808;SDS011;9532;54.322;10.116;2022-12-07T08:22:05;4.23;;;1.70;;
18808;SDS011;9532;54.322;10.116;2022-12-07T08:24:33;4.13;;;1.60;;
18808;SDS011;9532;54.322;10.116;2022-12-07T08:27:00;5.20;;;1.50;;
18808;SDS011;9532;54.322;10.116;2022-12-07T08:29:28;2.00;;;1.37;;
18808;SDS011;9532;54.322;10.116;2022-12-07T08:31:56;3.53;;;1.90;;
18808;SDS011;9532;54.322;10.116;2022-12-07T08:34:27;4.43;;;1.77;;
18808;SDS011;9532;54.322;10.116;2022-12-07T08:36:54;4.37;;;1.67;;
18808;SDS011;9532;54.322;10.116;2022-12-07T08:39:21;4.70;;;1.70;;
18808;SDS011;9532;54.322;10.116;2022-12-07T08:41:49;5.83;;;1.70;;
18808;SDS011;9532;54.322;10.116;2022-12-07T08:44:16;6.07;;;2.13;;
18808;SDS011;9532;54.322;10.116;2022-12-07T08:46:44;4.97;;;1.83;;
18808;SDS011;9532;54.322;10.116;2022-12-07T08:49:15;3.07;;;1.80;;
18808;SDS011;9532;54.322;10.116;2022-12-07T08:51:47;3.40;;;1.87;;
18808;SDS011;9532;54.322;10.116;2022-12-07T08:54:15;2.93;;;1.80;;
18808;SDS011;9532;54.322;10.116;2022-12-07T08:56:44;3.90;;;2.10;;
18808;SDS011;9532;54.322;10.116;2022-12-07T08:59:14;4.10;;;2.27;;
18808;SDS011;9532;54.322;10.116;2022-12-07T09:01:44;4.07;;;2.27;;
18808;SDS011;9532;54.322;10.116;2022-12-07T09:04:11;4.60;;;1.80;;
18808;SDS011;9532;54.322;10.116;2022-12-07T09:06:38;3.57;;;2.00;;
18808;SDS011;9532;54.322;10.116;2022-12-07T09:09:07;3.90;;;1.83;;
18808;SDS011;9532;54.322;10.116;2022-12-07T09:11:35;5.07;;;2.30;;
18808;SDS011;9532;54.322;10.116;2022-12-07T09:14:04;5.17;;;2.30;;
18808;SDS011;9532;54.322;10.116;2022-12-07T09:16:31;4.23;;;2.20;;
18808;SDS011;9532;54.322;10.116;2022-12-07T09:18:58;3.07;;;1.97;;
18808;SDS011;9532;54.322;10.116;2022-12-07T09:21:26;3.47;;;2.07;;
18808;SDS011;9532;54.322;10.116;2022-12-07T09:23:53;3.83;;;1.93;;
18808;SDS011;9532;54.322;10.116;2022-12-07T09:26:22;2.70;;;1.90;;
18808;SDS011;9532;54.322;10.116;2022-12-07T09:28:49;5.70;;;2.00;;
18808;SDS011;9532;54.322;10.116;2022-12-07T09:31:16;3.33;;;2.00;;
18808;SDS011;9532;54.322;10.116;2022-12-07T09:33:44;6.17;;;2.10;;
18808;SDS011;9532;54.322;10.116;2022-12-07T09:36:11;3.27;;;2.00;;
18808;SDS011;9532;54.322;10.116;2022-12-07T09:38:39;4.00;;;2.10;;
18808;SDS011;9532;54.322;10.116;2022-12-07T09:41:06;4.17;;;2.00;;
18808;SDS011;9532;54.322;10.116;2022-12-07T09:43:36;3.63;;;2.10;;
18808;SDS011;9532;54.322;10.116;2022-12-07T09:46:08;3.27;;;1.90;;
18808;SDS011;9532;54.322;10.116;2022-12-07T09:48:39;3.33;;;2.07;;
18808;SDS011;9532;54.322;10.116;2022-12-07T09:51:12;3.40;;;2.00;;
18808;SDS011;9532;54.322;10.116;2022-12-07T09:53:41;4.30;;;2.20;;
18808;SDS011;9532;54.322;10.116;2022-12-07T09:56:11;3.10;;;1.90;;
18808;SDS011;9532;54.322;10.116;2022-12-07T09:58:41;6.67;;;2.00;;
18808;SDS011;9532;54.322;10.116;2022-12-07T10:01:11;5.40;;;2.00;;
18808;SDS011;9532;54.322;10.116;2022-12-07T10:03:42;8.53;;;2.03;;
18808;SDS011;9532;54.322;10.116;2022-12-07T10:06:15;4.70;;;1.90;;
18808;SDS011;9532;54.322;10.116;2022-12-07T10:08:43;7.27;;;1.50;;
18808;SDS011;9532;54.322;10.116;2022-12-07T10:11:12;8.07;;;1.80;;
18808;SDS011;9532;54.322;10.116;2022-12-07T10:13:43;3.33;;;1.63;;
18808;SDS011;9532;54.322;10.116;2022-12-07T10:22:07;5.33;;;1.70;;
18808;SDS011;9532;54.322;10.116;2022-12-07T10:24:36;7.50;;;1.83;;
18808;SDS011;9532;54.322;10.116;2022-12-07T10:27:09;10.17;;;1.70;;
18808;SDS011;9532;54.322;10.116;2022-12-07T10:29:48;9.97;;;1.40;;
18808;SDS011;9532;54.322;10.116;2022-12-07T10:32:28;10.77;;;1.63;;
18808;SDS011;9532;54.322;10.116;2022-12-07T10:35:18;5.20;;;1.40;;
18808;SDS011;9532;54.322;10.116;2022-12-07T10:37:48;4.57;;;1.40;;
18808;SDS011;9532;54.322;10.116;2022-12-07T10:40:27;3.90;;;1.50;;
18808;SDS011;9532;54.322;10.116;2022-12-07T10:43:00;5.10;;;1.30;;
18808;SDS011;9532;54.322;10.116;2022-12-07T10:45:35;5.10;;;1.30;;
18808;SDS011;9532;54.322;10.116;2022-12-07T10:48:22;3.50;;;1.20;;
18808;SDS011;9532;54.322;10.116;2022-12-07T10:51:01;2.90;;;1.43;;
18808;SDS011;9532;54.322;10.116;2022-12-07T10:53:44;3.10;;;1.30;;
18808;SDS011;9532;54.322;10.116;2022-12-07T10:56:23;7.60;;;1.30;;
18808;SDS011;9532;54.322;10.116;2022-12-07T10:59:08;5.30;;;1.57;;
18808;SDS011;9532;54.322;10.116;2022-12-07T11:01:54;2.43;;;1.23;;
18808;SDS011;9532;54.322;10.116;2022-12-07T11:04:31;5.37;;;1.30;;
18808;SDS011;9532;54.322;10.116;2022-12-07T11:07:06;4.97;;;1.07;;
18808;SDS011;9532;54.322;10.116;2022-12-07T11:09:43;3.33;;;1.40;;
18808;SDS011;9532;54.322;10.116;2022-12-07T11:12:20;3.83;;;1.70;;
18808;SDS011;9532;54.322;10.116;2022-12-07T11:14:55;3.23;;;1.27;;
18808;SDS011;9532;54.322;10.116;2022-12-07T11:17:31;2.20;;;1.20;;
18808;SDS011;9532;54.322;10.116;2022-12-07T11:20:12;3.03;;;1.50;;
18808;SDS011;9532;54.322;10.116;2022-12-07T11:22:54;2.90;;;1.43;;
18808;SDS011;9532;54.322;10.116;2022-12-07T11:25:28;5.63;;;1.63;;
18808;SDS011;9532;54.322;10.116;2022-12-07T11:28:05;2.50;;;1.50;;
18808;SDS011;9532;54.322;10.116;2022-12-07T11:30:48;4.13;;;1.40;;
18808;SDS011;9532;54.322;10.116;2022-12-07T11:33:25;2.90;;;1.50;;
18808;SDS011;9532;54.322;10.116;2022-12-07T11:35:59;3.33;;;1.70;;
18808;SDS011;9532;54.322;10.116;2022-12-07T11:38:41;6.13;;;1.63;;
18808;SDS011;9532;54.322;10.116;2022-12-07T11:41:12;3.20;;;1.30;;
18808;SDS011;9532;54.322;10.116;2022-12-07T11:43:54;7.60;;;1.30;;
18808;SDS011;9532;54.322;10.116;2022-12-07T11:46:29;5.73;;;1.70;;
18808;SDS011;9532;54.322;10.116;2022-12-07T11:49:12;6.37;;;1.73;;
18808;SDS011;9532;54.322;10.116;2022-12-07T11:51:44;3.90;;;1.50;;
18808;SDS011;9532;54.322;10.116;2022-12-07T11:54:15;4.33;;;1.37;;
18808;SDS011;9532;54.322;10.116;2022-12-07T11:56:46;7.10;;;1.70;;
18808;SDS011;9532;54.322;10.116;2022-12-07T11:59:17;4.67;;;1.37;;
18808;SDS011;9532;54.322;10.116;2022-12-07T12:01:52;2.67;;;1.43;;
18808;SDS011;9532;54.322;10.116;2022-12-07T12:04:29;4.03;;;1.10;;
18808;SDS011;9532;54.322;10.116;2022-12-07T12:07:00;3.70;;;1.50;;
18808;SDS011;9532;54.322;10.116;2022-12-07T12:09:30;4.47;;;1.50;;
18808;SDS011;9532;54.322;10.116;2022-12-07T12:12:07;4.93;;;1.90;;
18808;SDS011;9532;54.322;10.116;2022-12-07T12:14:50;3.13;;;1.10;;
18808;SDS011;9532;54.322;10.116;2022-12-07T12:17:30;4.40;;;1.40;;
18808;SDS011;9532;54.322;10.116;2022-12-07T12:20:16;2.33;;;1.10;;
18808;SDS011;9532;54.322;10.116;2022-12-07T12:22:49;4.33;;;1.20;;
18808;SDS011;9532;54.322;10.116;2022-12-07T12:25:20;3.47;;;1.23;;
18808;SDS011;9532;54.322;10.116;2022-12-07T12:27:50;3.07;;;1.17;;
18808;SDS011;9532;54.322;10.116;2022-12-07T12:30:31;4.33;;;1.40;;
18808;SDS011;9532;54.322;10.116;2022-12-07T12:33:01;2.80;;;1.20;;
18808;SDS011;9532;54.322;10.116;2022-12-07T12:35:34;4.97;;;1.20;;
18808;SDS011;9532;54.322;10.116;2022-12-07T12:40:54;2.53;;;1.20;;
18808;SDS011;9532;54.322;10.116;2022-12-07T12:55:15;3.33;;;1.33;;
18808;SDS011;9532;54.322;10.116;2022-12-07T12:57:46;4.23;;;1.20;;
18808;SDS011;9532;54.322;10.116;2022-12-07T13:00:34;7.43;;;1.27;;
18808;SDS011;9532;54.322;10.116;2022-12-07T13:03:02;12.97;;;1.33;;
18808;SDS011;9532;54.322;10.116;2022-12-07T13:05:30;7.63;;;1.20;;
18808;SDS011;9532;54.322;10.116;2022-12-07T13:08:00;5.10;;;1.40;;
18808;SDS011;9532;54.322;10.116;2022-12-07T13:13:29;1.80;;;0.90;;
18808;SDS011;9532;54.322;10.116;2022-12-07T13:18:58;10.73;;;1.30;;
18808;SDS011;9532;54.322;10.116;2022-12-07T13:21:41;2.30;;;1.00;;
18808;SDS011;9532;54.322;10.116;2022-12-07T13:24:10;11.50;;;1.43;;
18808;SDS011;9532;54.322;10.116;2022-12-07T13:26:41;5.30;;;1.30;;
18808;SDS011;9532;54.322;10.116;2022-12-07T13:29:11;7.27;;;1.20;;
18808;SDS011;9532;54.322;10.116;2022-12-07T13:31:40;4.60;;;1.50;;
18808;SDS011;9532;54.322;10.116;2022-12-07T13:34:28;4.10;;;1.10;;
18808;SDS011;9532;54.322;10.116;2022-12-07T13:36:57;5.07;;;1.20;;
18808;SDS011;9532;54.322;10.116;2022-12-07T13:39:26;4.73;;;0.93;;
18808;SDS011;9532;54.322;10.116;2022-12-07T13:41:56;6.87;;;1.50;;
18808;SDS011;9532;54.322;10.116;2022-12-07T13:44:27;6.43;;;1.30;;
18808;SDS011;9532;54.322;10.116;2022-12-07T13:46:59;11.43;;;1.10;;
18808;SDS011;9532;54.322;10.116;2022-12-07T13:49:36;5.37;;;1.30;;
18808;SDS011;9532;54.322;10.116;2022-12-07T13:52:13;3.27;;;1.23;;
18808;SDS011;9532;54.322;10.116;2022-12-07T13:54:46;7.00;;;1.40;;
18808;SDS011;9532;54.322;10.116;2022-12-07T13:57:16;5.50;;;1.60;;
18808;SDS011;9532;54.322;10.116;2022-12-07T13:59:44;6.20;;;1.37;;
18808;SDS011;9532;54.322;10.116;2022-12-07T14:02:19;3.40;;;1.27;;
18808;SDS011;9532;54.322;10.116;2022-12-07T14:04:48;4.73;;;1.30;;
18808;SDS011;9532;54.322;10.116;2022-12-07T14:07:21;16.33;;;1.60;;
18808;SDS011;9532;54.322;10.116;2022-12-07T14:09:55;3.20;;;0.90;;
18808;SDS011;9532;54.322;10.116;2022-12-07T14:12:26;6.10;;;1.47;;
18808;SDS011;9532;54.322;10.116;2022-12-07T14:14:55;3.20;;;1.23;;
18808;SDS011;9532;54.322;10.116;2022-12-07T14:17:24;3.60;;;1.03;;
18808;SDS011;9532;54.322;10.116;2022-12-07T14:19:52;3.73;;;1.13;;
18808;SDS011;9532;54.322;10.116;2022-12-07T14:22:22;7.63;;;1.30;;
18808;SDS011;9532;54.322;10.116;2022-12-07T14:25:17;4.13;;;1.17;;
18808;SDS011;9532;54.322;10.116;2022-12-07T14:27:49;3.97;;;1.50;;
18808;SDS011;9532;54.322;10.116;2022-12-07T14:30:21;3.13;;;1.40;;
18808;SDS011;9532;54.322;10.116;2022-12-07T14:32:51;2.37;;;1.20;;
18808;SDS011;9532;54.322;10.116;2022-12-07T14:35:20;6.13;;;1.40;;
18808;SDS011;9532;54.322;10.116;2022-12-07T14:37:48;2.67;;;1.30;;
18808;SDS011;9532;54.322;10.116;2022-12-07T14:40:17;3.70;;;1.40;;
18808;SDS011;9532;54.322;10.116;2022-12-07T14:42:46;3.43;;;1.27;;
18808;SDS011;9532;54.322;10.116;2022-12-07T14:45:17;2.07;;;1.40;;
18808;SDS011;9532;54.322;10.116;2022-12-07T14:47:46;4.03;;;1.50;;
18808;SDS011;9532;54.322;10.116;2022-12-07T14:50:14;3.40;;;1.30;;
18808;SDS011;9532;54.322;10.116;2022-12-07T14:52:43;4.73;;;1.80;;
18808;SDS011;9532;54.322;10.116;2022-12-07T14:55:16;6.27;;;2.23;;
18808;SDS011;9532;54.322;10.116;2022-12-07T14:57:51;4.73;;;2.17;;
18808;SDS011;9532;54.322;10.116;2022-12-07T15:00:19;4.57;;;2.20;;
18808;SDS011;9532;54.322;10.116;2022-12-07T15:02:49;5.43;;;3.30;;
18808;SDS011;9532;54.322;10.116;2022-12-07T15:05:16;5.33;;;3.10;;
18808;SDS011;9532;54.322;10.116;2022-12-07T15:07:45;6.10;;;2.90;;
18808;SDS011;9532;54.322;10.116;2022-12-07T15:10:14;5.97;;;2.90;;
18808;SDS011;9532;54.322;10.116;2022-12-07T15:12:45;5.23;;;2.70;;
18808;SDS011;9532;54.322;10.116;2022-12-07T15:15:14;4.50;;;2.90;;
18808;SDS011;9532;54.322;10.116;2022-12-07T15:17:42;5.07;;;3.10;;
18808;SDS011;9532;54.322;10.116;2022-12-07T15:20:11;6.83;;;3.30;;
18808;SDS011;9532;54.322;10.116;2022-12-07T15:22:41;8.70;;;3.63;;
18808;SDS011;9532;54.322;10.116;2022-12-07T15:25:09;7.67;;;3.70;;
18808;SDS011;9532;54.322;10.116;2022-12-07T15:27:39;7.10;;;3.53;;
18808;SDS011;9532;54.322;10.116;2022-12-07T15:30:07;6.43;;;3.13;;
18808;SDS011;9532;54.322;10.116;2022-12-07T15:32:36;7.77;;;4.33;;
18808;SDS011;9532;54.322;10.116;2022-12-07T15:35:03;6.40;;;3.60;;
18808;SDS011;9532;54.322;10.116;2022-12-07T15:37:31;9.53;;;3.90;;
18808;SDS011;9532;54.322;10.116;2022-12-07T15:39:59;6.10;;;3.37;;